PWSweather.com
Personal Weather Stations
Station Observations
WESTON01
WestonSuperMareGB BS22 8RT

WestonSuperMareGB BS22 8RT

Lat: 51.351508, Lon: -2.933373

Elevation: 15

Station Type: Fine Offset WH1080

http://www.westonweather.co.uk

High Low Average
Temperature 78.0°F25.6°C 61.4°F16.3°C 68.4°F20.2°C
Dew Point 60.0°F15.6°C 53.8°F12.1°C 57.5°F14.2°C
Winds 11.4 mph 18.3 kmh 2.5 mph 4.0 kmh 6.0 mph WNW9.7 kmh WNW
Wind Gusts 17.6 mph28.3 kmh 4.5 mph7.2 kmh 9.0 mph14.5 kmh
Humidity 84% 50% 69%
Pressure 30.05 in1017.6 mb 29.87 in1011.5 mb -
Precipitation 0.00 in0.0 mm - -
Hour Temp Dew Point Humidity Winds Wind Gusts Pressure Precip Precip Rate Daily Precip Total
12:00 AM 65.2°F18.4°C 58.2°F14.6°C 78% 6.2 mph WSW10.0 kmh WSW 9.8 mph15.8 kmh 30.05 in1017.6 mb 0.00 in0.0 mm 0.00 in0.0 mm 0.00 in0.0 mm
12:05 AM 65.2°F18.4°C 58.5°F14.7°C 79% 7.0 mph WSW11.3 kmh WSW 9.8 mph15.8 kmh 30.05 in1017.6 mb 0.00 in0.0 mm 0.00 in0.0 mm 0.00 in0.0 mm
12:10 AM 65.0°F18.3°C 58.4°F14.7°C 79% 6.9 mph WSW11.1 kmh WSW 9.2 mph14.8 kmh 30.05 in1017.6 mb 0.00 in0.0 mm 0.00 in0.0 mm 0.00 in0.0 mm
12:15 AM 65.0°F18.3°C 58.4°F14.7°C 79% 6.6 mph W10.6 kmh W 9.2 mph14.8 kmh 30.05 in1017.6 mb 0.00 in0.0 mm 0.00 in0.0 mm 0.00 in0.0 mm
12:20 AM 64.8°F18.2°C 58.5°F14.7°C 80% 6.2 mph W10.0 kmh W 7.7 mph12.4 kmh 30.05 in1017.6 mb 0.00 in0.0 mm 0.00 in0.0 mm 0.00 in0.0 mm
12:25 AM 64.8°F18.2°C 58.5°F14.7°C 80% 6.9 mph W11.1 kmh W 8.3 mph13.4 kmh 30.05 in1017.6 mb 0.00 in0.0 mm 0.00 in0.0 mm 0.00 in0.0 mm
12:30 AM 64.7°F18.2°C 58.7°F14.8°C 81% 6.9 mph W11.1 kmh W 8.6 mph13.8 kmh 30.05 in1017.6 mb 0.00 in0.0 mm 0.00 in0.0 mm 0.00 in0.0 mm
12:35 AM 64.7°F18.2°C 58.7°F14.8°C 81% 6.7 mph W10.8 kmh W 10.1 mph16.3 kmh 30.05 in1017.6 mb 0.00 in0.0 mm 0.00 in0.0 mm 0.00 in0.0 mm
12:40 AM 64.5°F18.1°C 58.5°F14.7°C 81% 5.9 mph W9.5 kmh W 10.1 mph16.3 kmh 30.05 in1017.6 mb 0.00 in0.0 mm 0.00 in0.0 mm 0.00 in0.0 mm
12:45 AM 64.5°F18.1°C 58.5°F14.7°C 81% 4.6 mph WNW7.4 kmh WNW 5.4 mph8.7 kmh 30.05 in1017.6 mb 0.00 in0.0 mm 0.00 in0.0 mm 0.00 in0.0 mm
12:50 AM 64.3°F17.9°C 58.7°F14.8°C 82% 4.3 mph WNW6.9 kmh WNW 6.5 mph10.5 kmh 30.05 in1017.6 mb 0.00 in0.0 mm 0.00 in0.0 mm 0.00 in0.0 mm
12:55 AM 64.3°F17.9°C 58.7°F14.8°C 82% 4.7 mph W7.6 kmh W 7.4 mph11.9 kmh 30.05 in1017.6 mb 0.00 in0.0 mm 0.00 in0.0 mm 0.00 in0.0 mm
01:00 AM 64.3°F17.9°C 58.7°F14.8°C 82% 4.6 mph WSW7.4 kmh WSW 7.4 mph11.9 kmh 30.05 in1017.6 mb 0.00 in0.0 mm 0.00 in0.0 mm 0.00 in0.0 mm
01:05 AM 64.3°F17.9°C 58.7°F14.8°C 82% 3.7 mph W6.0 kmh W 5.1 mph8.2 kmh 30.05 in1017.6 mb 0.00 in0.0 mm 0.00 in0.0 mm 0.00 in0.0 mm
01:10 AM 64.3°F17.9°C 59.0°F15.0°C 83% 4.6 mph WNW7.4 kmh WNW 7.1 mph11.4 kmh 30.05 in1017.6 mb 0.00 in0.0 mm 0.00 in0.0 mm 0.00 in0.0 mm
01:15 AM 64.3°F17.9°C 59.0°F15.0°C 83% 4.8 mph NW7.7 kmh NW 7.1 mph11.4 kmh 30.02 in1016.6 mb 0.00 in0.0 mm 0.00 in0.0 mm 0.00 in0.0 mm
01:20 AM 64.3°F17.9°C 59.0°F15.0°C 83% 3.4 mph WNW5.5 kmh WNW 5.7 mph9.2 kmh 30.02 in1016.6 mb 0.00 in0.0 mm 0.00 in0.0 mm 0.00 in0.0 mm
01:25 AM 64.3°F17.9°C 59.0°F15.0°C 83% 3.1 mph W5.0 kmh W 6.2 mph10.0 kmh 30.02 in1016.6 mb 0.00 in0.0 mm 0.00 in0.0 mm 0.00 in0.0 mm
01:30 AM 64.3°F17.9°C 59.0°F15.0°C 83% 4.6 mph W7.4 kmh W 8.3 mph13.4 kmh 30.05 in1017.6 mb 0.00 in0.0 mm 0.00 in0.0 mm 0.00 in0.0 mm
01:35 AM 64.3°F17.9°C 59.0°F15.0°C 83% 5.8 mph W9.3 kmh W 8.3 mph13.4 kmh 30.05 in1017.6 mb 0.00 in0.0 mm 0.00 in0.0 mm 0.00 in0.0 mm
01:40 AM 64.3°F17.9°C 59.0°F15.0°C 83% 4.8 mph W7.7 kmh W 7.4 mph11.9 kmh 30.05 in1017.6 mb 0.00 in0.0 mm 0.00 in0.0 mm 0.00 in0.0 mm
01:45 AM 64.3°F17.9°C 59.0°F15.0°C 83% 4.0 mph NW6.4 kmh NW 7.1 mph11.4 kmh 30.02 in1016.6 mb 0.00 in0.0 mm 0.00 in0.0 mm 0.00 in0.0 mm
01:50 AM 64.1°F17.8°C 58.9°F14.9°C 83% 4.6 mph NW7.4 kmh NW 7.1 mph11.4 kmh 30.02 in1016.6 mb 0.00 in0.0 mm 0.00 in0.0 mm 0.00 in0.0 mm
01:55 AM 64.1°F17.8°C 58.9°F14.9°C 83% 4.8 mph WNW7.7 kmh WNW 7.4 mph11.9 kmh 30.02 in1016.6 mb 0.00 in0.0 mm 0.00 in0.0 mm 0.00 in0.0 mm
02:00 AM 64.0°F17.8°C 58.7°F14.8°C 83% 4.4 mph WNW7.1 kmh WNW 5.7 mph9.2 kmh 30.02 in1016.6 mb 0.00 in0.0 mm 0.00 in0.0 mm 0.00 in0.0 mm
02:05 AM 64.0°F17.8°C 58.7°F14.8°C 83% 4.6 mph WNW7.4 kmh WNW 6.5 mph10.5 kmh 30.02 in1016.6 mb 0.00 in0.0 mm 0.00 in0.0 mm 0.00 in0.0 mm
02:10 AM 64.0°F17.8°C 58.7°F14.8°C 83% 4.9 mph WNW7.9 kmh WNW 7.4 mph11.9 kmh 30.02 in1016.6 mb 0.00 in0.0 mm 0.00 in0.0 mm 0.00 in0.0 mm
02:15 AM 64.0°F17.8°C 59.0°F15.0°C 84% 4.8 mph W7.7 kmh W 7.4 mph11.9 kmh 30.02 in1016.6 mb 0.00 in0.0 mm 0.00 in0.0 mm 0.00 in0.0 mm
02:20 AM 64.0°F17.8°C 59.0°F15.0°C 84% 4.5 mph W7.2 kmh W 6.0 mph9.7 kmh 30.02 in1016.6 mb 0.00 in0.0 mm 0.00 in0.0 mm 0.00 in0.0 mm
02:25 AM 64.0°F17.8°C 59.0°F15.0°C 84% 5.0 mph W8.0 kmh W 8.3 mph13.4 kmh 30.02 in1016.6 mb 0.00 in0.0 mm 0.00 in0.0 mm 0.00 in0.0 mm
02:30 AM 64.0°F17.8°C 59.0°F15.0°C 84% 6.1 mph W9.8 kmh W 11.3 mph18.2 kmh 30.02 in1016.6 mb 0.00 in0.0 mm 0.00 in0.0 mm 0.00 in0.0 mm
02:35 AM 64.0°F17.8°C 59.0°F15.0°C 84% 7.5 mph W12.1 kmh W 11.3 mph18.2 kmh 30.02 in1016.6 mb 0.00 in0.0 mm 0.00 in0.0 mm 0.00 in0.0 mm
02:40 AM 64.0°F17.8°C 59.0°F15.0°C 84% 6.0 mph W9.7 kmh W 10.4 mph16.7 kmh 30.02 in1016.6 mb 0.00 in0.0 mm 0.00 in0.0 mm 0.00 in0.0 mm
02:45 AM 64.0°F17.8°C 59.0°F15.0°C 84% 3.7 mph WNW6.0 kmh WNW 6.2 mph10.0 kmh 30.02 in1016.6 mb 0.00 in0.0 mm 0.00 in0.0 mm 0.00 in0.0 mm
02:50 AM 64.0°F17.8°C 59.0°F15.0°C 84% 3.4 mph W5.5 kmh W 5.1 mph8.2 kmh 30.02 in1016.6 mb 0.00 in0.0 mm 0.00 in0.0 mm 0.00 in0.0 mm
02:55 AM 64.0°F17.8°C 59.0°F15.0°C 84% 3.7 mph W6.0 kmh W 5.1 mph8.2 kmh 30.02 in1016.6 mb 0.00 in0.0 mm 0.00 in0.0 mm 0.00 in0.0 mm
03:00 AM 64.0°F17.8°C 59.0°F15.0°C 84% 4.7 mph W7.6 kmh W 9.5 mph15.3 kmh 30.02 in1016.6 mb 0.00 in0.0 mm 0.00 in0.0 mm 0.00 in0.0 mm
03:05 AM 64.0°F17.8°C 59.0°F15.0°C 84% 6.0 mph WNW9.7 kmh WNW 9.5 mph15.3 kmh 30.02 in1016.6 mb 0.00 in0.0 mm 0.00 in0.0 mm 0.00 in0.0 mm
03:10 AM 64.0°F17.8°C 59.0°F15.0°C 84% 5.8 mph WNW9.3 kmh WNW 7.4 mph11.9 kmh 30.02 in1016.6 mb 0.00 in0.0 mm 0.00 in0.0 mm 0.00 in0.0 mm
03:15 AM 64.0°F17.8°C 59.0°F15.0°C 84% 5.9 mph WNW9.5 kmh WNW 7.4 mph11.9 kmh 30.02 in1016.6 mb 0.00 in0.0 mm 0.00 in0.0 mm 0.00 in0.0 mm
03:20 AM 64.0°F17.8°C 59.0°F15.0°C 84% 4.8 mph NW7.7 kmh NW 7.1 mph11.4 kmh 30.02 in1016.6 mb 0.00 in0.0 mm 0.00 in0.0 mm 0.00 in0.0 mm
03:25 AM 64.0°F17.8°C 59.0°F15.0°C 84% 3.8 mph NW6.1 kmh NW 5.7 mph9.2 kmh 30.02 in1016.6 mb 0.00 in0.0 mm 0.00 in0.0 mm 0.00 in0.0 mm
03:30 AM 64.1°F17.8°C 59.2°F15.1°C 84% 3.8 mph NW6.1 kmh NW 5.4 mph8.7 kmh 30.02 in1016.6 mb 0.00 in0.0 mm 0.00 in0.0 mm 0.00 in0.0 mm
03:35 AM 64.1°F17.8°C 59.2°F15.1°C 84% 3.8 mph NW6.1 kmh NW 5.4 mph8.7 kmh 30.02 in1016.6 mb 0.00 in0.0 mm 0.00 in0.0 mm 0.00 in0.0 mm
03:40 AM 64.1°F17.8°C 59.2°F15.1°C 84% 4.3 mph WNW6.9 kmh WNW 7.1 mph11.4 kmh 30.02 in1016.6 mb 0.00 in0.0 mm 0.00 in0.0 mm 0.00 in0.0 mm
03:45 AM 64.1°F17.8°C 59.2°F15.1°C 84% 4.4 mph WNW7.1 kmh WNW 7.1 mph11.4 kmh 30.02 in1016.6 mb 0.00 in0.0 mm 0.00 in0.0 mm 0.00 in0.0 mm
03:50 AM 64.3°F17.9°C 59.4°F15.2°C 84% 3.6 mph WNW5.8 kmh WNW 5.7 mph9.2 kmh 30.02 in1016.6 mb 0.00 in0.0 mm 0.00 in0.0 mm 0.00 in0.0 mm
03:55 AM 64.3°F17.9°C 59.4°F15.2°C 84% 3.4 mph WNW5.5 kmh WNW 4.5 mph7.2 kmh 30.02 in1016.6 mb 0.00 in0.0 mm 0.00 in0.0 mm 0.00 in0.0 mm
04:00 AM 64.3°F17.9°C 59.4°F15.2°C 84% 3.3 mph WNW5.3 kmh WNW 6.0 mph9.7 kmh 30.02 in1016.6 mb 0.00 in0.0 mm 0.00 in0.0 mm 0.00 in0.0 mm
04:05 AM 64.1°F17.8°C 58.9°F14.9°C 83% 4.3 mph W6.9 kmh W 7.1 mph11.4 kmh 30.02 in1016.6 mb 0.00 in0.0 mm 0.00 in0.0 mm 0.00 in0.0 mm
04:10 AM 64.1°F17.8°C 58.9°F14.9°C 83% 4.7 mph WNW7.6 kmh WNW 7.1 mph11.4 kmh 30.02 in1016.6 mb 0.00 in0.0 mm 0.00 in0.0 mm 0.00 in0.0 mm
04:15 AM 64.1°F17.8°C 58.9°F14.9°C 83% 4.0 mph NW6.4 kmh NW 6.0 mph9.7 kmh 30.02 in1016.6 mb 0.00 in0.0 mm 0.00 in0.0 mm 0.00 in0.0 mm
04:20 AM 64.1°F17.8°C 58.9°F14.9°C 83% 3.8 mph WNW6.1 kmh WNW 6.0 mph9.7 kmh 30.02 in1016.6 mb 0.00 in0.0 mm 0.00 in0.0 mm 0.00 in0.0 mm
04:25 AM 64.1°F17.8°C 58.9°F14.9°C 83% 3.4 mph WNW5.5 kmh WNW 5.1 mph8.2 kmh 30.02 in1016.6 mb 0.00 in0.0 mm 0.00 in0.0 mm 0.00 in0.0 mm
04:35 AM 64.1°F17.8°C 58.9°F14.9°C 83% 4.4 mph WNW7.1 kmh WNW 5.1 mph8.2 kmh 30.02 in1016.6 mb 0.00 in0.0 mm 0.00 in0.0 mm 0.00 in0.0 mm
04:40 AM 64.1°F17.8°C 58.9°F14.9°C 83% 4.0 mph WNW6.4 kmh WNW 5.7 mph9.2 kmh 30.02 in1016.6 mb 0.00 in0.0 mm 0.00 in0.0 mm 0.00 in0.0 mm
04:45 AM 64.1°F17.8°C 58.9°F14.9°C 83% 3.7 mph WNW6.0 kmh WNW 5.7 mph9.2 kmh 30.02 in1016.6 mb 0.00 in0.0 mm 0.00 in0.0 mm 0.00 in0.0 mm
04:50 AM 64.1°F17.8°C 58.9°F14.9°C 83% 5.0 mph WNW8.0 kmh WNW 8.9 mph14.3 kmh 30.02 in1016.6 mb 0.00 in0.0 mm 0.00 in0.0 mm 0.00 in0.0 mm
04:55 AM 64.1°F17.8°C 58.9°F14.9°C 83% 4.1 mph NW6.6 kmh NW 8.9 mph14.3 kmh 30.02 in1016.6 mb 0.00 in0.0 mm 0.00 in0.0 mm 0.00 in0.0 mm
05:00 AM 64.0°F17.8°C 58.3°F14.6°C 82% 3.4 mph NW5.5 kmh NW 8.9 mph14.3 kmh 30.02 in1016.6 mb 0.00 in0.0 mm 0.00 in0.0 mm 0.00 in0.0 mm
05:05 AM 64.0°F17.8°C 58.3°F14.6°C 82% 3.8 mph NW6.1 kmh NW 4.8 mph7.7 kmh 30.02 in1016.6 mb 0.00 in0.0 mm 0.00 in0.0 mm 0.00 in0.0 mm
05:10 AM 64.0°F17.8°C 58.3°F14.6°C 82% 4.0 mph NW6.4 kmh NW 6.0 mph9.7 kmh 30.02 in1016.6 mb 0.00 in0.0 mm 0.00 in0.0 mm 0.00 in0.0 mm
05:15 AM 64.0°F17.8°C 58.3°F14.6°C 82% 4.9 mph NW7.9 kmh NW 7.4 mph11.9 kmh 30.02 in1016.6 mb 0.00 in0.0 mm 0.00 in0.0 mm 0.00 in0.0 mm
05:20 AM 64.0°F17.8°C 58.3°F14.6°C 82% 4.9 mph NW7.9 kmh NW 7.4 mph11.9 kmh 30.02 in1016.6 mb 0.00 in0.0 mm 0.00 in0.0 mm 0.00 in0.0 mm
05:25 AM 64.0°F17.8°C 58.3°F14.6°C 82% 4.3 mph NW6.9 kmh NW 5.7 mph9.2 kmh 30.02 in1016.6 mb 0.00 in0.0 mm 0.00 in0.0 mm 0.00 in0.0 mm
05:30 AM 64.0°F17.8°C 58.3°F14.6°C 82% 5.0 mph NW8.0 kmh NW 7.7 mph12.4 kmh 30.02 in1016.6 mb 0.00 in0.0 mm 0.00 in0.0 mm 0.00 in0.0 mm
05:35 AM 64.0°F17.8°C 58.3°F14.6°C 82% 4.6 mph NW7.4 kmh NW 7.7 mph12.4 kmh 30.02 in1016.6 mb 0.00 in0.0 mm 0.00 in0.0 mm 0.00 in0.0 mm
05:40 AM 64.0°F17.8°C 58.0°F14.4°C 81% 3.1 mph NW5.0 kmh NW 7.1 mph11.4 kmh 30.02 in1016.6 mb 0.00 in0.0 mm 0.00 in0.0 mm 0.00 in0.0 mm
05:45 AM 64.0°F17.8°C 58.0°F14.4°C 81% 2.5 mph NW4.0 kmh NW 5.1 mph8.2 kmh 30.02 in1016.6 mb 0.00 in0.0 mm 0.00 in0.0 mm 0.00 in0.0 mm
05:50 AM 64.1°F17.8°C 58.2°F14.6°C 81% 3.2 mph NW5.1 kmh NW 5.1 mph8.2 kmh 30.02 in1016.6 mb 0.00 in0.0 mm 0.00 in0.0 mm 0.00 in0.0 mm
05:55 AM 64.1°F17.8°C 58.2°F14.6°C 81% 3.5 mph NW5.6 kmh NW 6.5 mph10.5 kmh 30.02 in1016.6 mb 0.00 in0.0 mm 0.00 in0.0 mm 0.00 in0.0 mm
06:00 AM 64.1°F17.8°C 58.2°F14.6°C 81% 3.5 mph NW5.6 kmh NW 6.5 mph10.5 kmh 30.02 in1016.6 mb 0.00 in0.0 mm 0.00 in0.0 mm 0.00 in0.0 mm
06:05 AM 64.3°F17.9°C 58.4°F14.7°C 81% 3.7 mph NW6.0 kmh NW 6.2 mph10.0 kmh 30.02 in1016.6 mb 0.00 in0.0 mm 0.00 in0.0 mm 0.00 in0.0 mm
06:10 AM 64.3°F17.9°C 58.4°F14.7°C 81% 4.0 mph NW6.4 kmh NW 5.4 mph8.7 kmh 30.02 in1016.6 mb 0.00 in0.0 mm 0.00 in0.0 mm 0.00 in0.0 mm
06:15 AM 64.3°F17.9°C 58.4°F14.7°C 81% 4.1 mph NW6.6 kmh NW 5.7 mph9.2 kmh 30.02 in1016.6 mb 0.00 in0.0 mm 0.00 in0.0 mm 0.00 in0.0 mm
06:20 AM 64.3°F17.9°C 58.4°F14.7°C 81% 4.1 mph NW6.6 kmh NW 5.7 mph9.2 kmh 30.02 in1016.6 mb 0.00 in0.0 mm 0.00 in0.0 mm 0.00 in0.0 mm
06:25 AM 64.5°F18.1°C 58.5°F14.7°C 81% 3.7 mph NW6.0 kmh NW 6.2 mph10.0 kmh 30.02 in1016.6 mb 0.00 in0.0 mm 0.00 in0.0 mm 0.00 in0.0 mm
06:30 AM 64.5°F18.1°C 58.2°F14.6°C 80% 3.4 mph NW5.5 kmh NW 6.2 mph10.0 kmh 30.02 in1016.6 mb 0.00 in0.0 mm 0.00 in0.0 mm 0.00 in0.0 mm
06:35 AM 64.7°F18.2°C 58.4°F14.7°C 80% 3.9 mph NW6.3 kmh NW 4.8 mph7.7 kmh 30.02 in1016.6 mb 0.00 in0.0 mm 0.00 in0.0 mm 0.00 in0.0 mm
06:40 AM 64.7°F18.2°C 58.4°F14.7°C 80% 3.5 mph NW5.6 kmh NW 4.8 mph7.7 kmh 30.02 in1016.6 mb 0.00 in0.0 mm 0.00 in0.0 mm 0.00 in0.0 mm
06:45 AM 64.8°F18.2°C 58.5°F14.7°C 80% 3.5 mph NW5.6 kmh NW 5.4 mph8.7 kmh 30.02 in1016.6 mb 0.00 in0.0 mm 0.00 in0.0 mm 0.00 in0.0 mm
06:50 AM 64.8°F18.2°C 58.5°F14.7°C 80% 4.5 mph NW7.2 kmh NW 6.2 mph10.0 kmh 30.02 in1016.6 mb 0.00 in0.0 mm 0.00 in0.0 mm 0.00 in0.0 mm
06:55 AM 64.8°F18.2°C 58.5°F14.7°C 80% 4.4 mph NW7.1 kmh NW 6.2 mph10.0 kmh 30.02 in1016.6 mb 0.00 in0.0 mm 0.00 in0.0 mm 0.00 in0.0 mm
07:00 AM 65.0°F18.3°C 58.4°F14.7°C 79% 4.3 mph NW6.9 kmh NW 7.1 mph11.4 kmh 30.02 in1016.6 mb 0.00 in0.0 mm 0.00 in0.0 mm 0.00 in0.0 mm
07:05 AM 65.0°F18.3°C 58.4°F14.7°C 79% 4.5 mph NW7.2 kmh NW 7.1 mph11.4 kmh 30.02 in1016.6 mb 0.00 in0.0 mm 0.00 in0.0 mm 0.00 in0.0 mm
07:10 AM 65.2°F18.4°C 58.2°F14.6°C 78% 4.0 mph NW6.4 kmh NW 6.5 mph10.5 kmh 30.02 in1016.6 mb 0.00 in0.0 mm 0.00 in0.0 mm 0.00 in0.0 mm
07:15 AM 65.4°F18.6°C 58.3°F14.6°C 78% 3.5 mph NW5.6 kmh NW 6.2 mph10.0 kmh 30.02 in1016.6 mb 0.00 in0.0 mm 0.00 in0.0 mm 0.00 in0.0 mm
07:20 AM 65.4°F18.6°C 58.3°F14.6°C 78% 3.7 mph NW6.0 kmh NW 6.2 mph10.0 kmh 30.02 in1016.6 mb 0.00 in0.0 mm 0.00 in0.0 mm 0.00 in0.0 mm
07:25 AM 65.6°F18.7°C 58.5°F14.7°C 78% 3.6 mph NW5.8 kmh NW 5.4 mph8.7 kmh 30.02 in1016.6 mb 0.00 in0.0 mm 0.00 in0.0 mm 0.00 in0.0 mm
07:30 AM 65.8°F18.8°C 58.7°F14.8°C 78% 3.9 mph NW6.3 kmh NW 7.1 mph11.4 kmh 30.02 in1016.6 mb 0.00 in0.0 mm 0.00 in0.0 mm 0.00 in0.0 mm
07:35 AM 65.8°F18.8°C 58.3°F14.6°C 77% 3.8 mph NW6.1 kmh NW 7.1 mph11.4 kmh 30.02 in1016.6 mb 0.00 in0.0 mm 0.00 in0.0 mm 0.00 in0.0 mm
07:40 AM 65.9°F18.8°C 58.5°F14.7°C 77% 3.6 mph NW5.8 kmh NW 5.7 mph9.2 kmh 30.02 in1016.6 mb 0.00 in0.0 mm 0.00 in0.0 mm 0.00 in0.0 mm
07:45 AM 66.1°F18.9°C 58.3°F14.6°C 76% 4.6 mph NW7.4 kmh NW 8.6 mph13.8 kmh 30.02 in1016.6 mb 0.00 in0.0 mm 0.00 in0.0 mm 0.00 in0.0 mm
07:50 AM 66.3°F19.1°C 58.5°F14.7°C 76% 5.2 mph NW8.4 kmh NW 8.6 mph13.8 kmh 30.02 in1016.6 mb 0.00 in0.0 mm 0.00 in0.0 mm 0.00 in0.0 mm
07:55 AM 66.5°F19.2°C 58.3°F14.6°C 75% 6.0 mph NW9.7 kmh NW 10.1 mph16.3 kmh 30.02 in1016.6 mb 0.00 in0.0 mm 0.00 in0.0 mm 0.00 in0.0 mm
08:00 AM 66.7°F19.3°C 58.5°F14.7°C 75% 6.4 mph NW10.3 kmh NW 10.1 mph16.3 kmh 30.02 in1016.6 mb 0.00 in0.0 mm 0.00 in0.0 mm 0.00 in0.0 mm
08:05 AM 66.8°F19.3°C 58.3°F14.6°C 74% 5.4 mph NW8.7 kmh NW 7.4 mph11.9 kmh 30.02 in1016.6 mb 0.00 in0.0 mm 0.00 in0.0 mm 0.00 in0.0 mm
08:10 AM 67.2°F19.6°C 58.6°F14.8°C 74% 5.3 mph NNW8.5 kmh NNW 7.4 mph11.9 kmh 30.02 in1016.6 mb 0.00 in0.0 mm 0.00 in0.0 mm 0.00 in0.0 mm
08:15 AM 67.4°F19.7°C 58.4°F14.7°C 73% 6.0 mph NNW9.7 kmh NNW 7.4 mph11.9 kmh 30.02 in1016.6 mb 0.00 in0.0 mm 0.00 in0.0 mm 0.00 in0.0 mm
08:20 AM 67.6°F19.8°C 58.6°F14.8°C 73% 5.1 mph NNW8.2 kmh NNW 7.4 mph11.9 kmh 30.02 in1016.6 mb 0.00 in0.0 mm 0.00 in0.0 mm 0.00 in0.0 mm
08:25 AM 67.7°F19.8°C 58.4°F14.7°C 72% 5.5 mph NW8.9 kmh NW 9.2 mph14.8 kmh 30.02 in1016.6 mb 0.00 in0.0 mm 0.00 in0.0 mm 0.00 in0.0 mm
08:30 AM 67.7°F19.8°C 58.4°F14.7°C 72% 6.2 mph WNW10.0 kmh WNW 9.2 mph14.8 kmh 30.02 in1016.6 mb 0.00 in0.0 mm 0.00 in0.0 mm 0.00 in0.0 mm
08:35 AM 67.7°F19.8°C 58.0°F14.4°C 71% 5.5 mph WNW8.9 kmh WNW 8.6 mph13.8 kmh 30.02 in1016.6 mb 0.00 in0.0 mm 0.00 in0.0 mm 0.00 in0.0 mm
08:40 AM 68.1°F20.1°C 58.3°F14.6°C 71% 5.4 mph WNW8.7 kmh WNW 8.6 mph13.8 kmh 30.02 in1016.6 mb 0.00 in0.0 mm 0.00 in0.0 mm 0.00 in0.0 mm
08:45 AM 68.3°F20.2°C 58.5°F14.7°C 71% 5.4 mph NW8.7 kmh NW 7.4 mph11.9 kmh 30.02 in1016.6 mb 0.00 in0.0 mm 0.00 in0.0 mm 0.00 in0.0 mm
08:50 AM 68.4°F20.2°C 58.7°F14.8°C 71% 5.3 mph NW8.5 kmh NW 7.7 mph12.4 kmh 30.02 in1016.6 mb 0.00 in0.0 mm 0.00 in0.0 mm 0.00 in0.0 mm
08:55 AM 68.6°F20.3°C 58.5°F14.7°C 70% 4.4 mph NW7.1 kmh NW 7.7 mph12.4 kmh 30.02 in1016.6 mb 0.00 in0.0 mm 0.00 in0.0 mm 0.00 in0.0 mm
09:00 AM 69.0°F20.6°C 58.8°F14.9°C 70% 4.6 mph NNW7.4 kmh NNW 7.4 mph11.9 kmh 30.02 in1016.6 mb 0.00 in0.0 mm 0.00 in0.0 mm 0.00 in0.0 mm
09:05 AM 69.3°F20.7°C 58.7°F14.8°C 69% 4.2 mph NNW6.8 kmh NNW 6.5 mph10.5 kmh 30.02 in1016.6 mb 0.00 in0.0 mm 0.00 in0.0 mm 0.00 in0.0 mm
09:10 AM 69.5°F20.8°C 58.9°F14.9°C 69% 3.7 mph NW6.0 kmh NW 7.4 mph11.9 kmh 29.99 in1015.6 mb 0.00 in0.0 mm 0.00 in0.0 mm 0.00 in0.0 mm
09:15 AM 69.7°F20.9°C 59.1°F15.1°C 69% 4.7 mph NW7.6 kmh NW 7.7 mph12.4 kmh 29.99 in1015.6 mb 0.00 in0.0 mm 0.00 in0.0 mm 0.00 in0.0 mm
09:20 AM 69.9°F21.1°C 59.3°F15.2°C 69% 6.2 mph NW10.0 kmh NW 8.6 mph13.8 kmh 30.02 in1016.6 mb 0.00 in0.0 mm 0.00 in0.0 mm 0.00 in0.0 mm
09:25 AM 70.3°F21.3°C 59.2°F15.1°C 68% 5.7 mph NNW9.2 kmh NNW 8.6 mph13.8 kmh 30.02 in1016.6 mb 0.00 in0.0 mm 0.00 in0.0 mm 0.00 in0.0 mm
09:30 AM 70.6°F21.4°C 59.5°F15.3°C 68% 4.4 mph NW7.1 kmh NW 7.1 mph11.4 kmh 30.02 in1016.6 mb 0.00 in0.0 mm 0.00 in0.0 mm 0.00 in0.0 mm
09:35 AM 70.8°F21.6°C 59.7°F15.4°C 68% 4.3 mph NW6.9 kmh NW 8.6 mph13.8 kmh 29.99 in1015.6 mb 0.00 in0.0 mm 0.00 in0.0 mm 0.00 in0.0 mm
09:40 AM 71.5°F21.9°C 60.0°F15.6°C 67% 4.3 mph NNW6.9 kmh NNW 8.6 mph13.8 kmh 29.99 in1015.6 mb 0.00 in0.0 mm 0.00 in0.0 mm 0.00 in0.0 mm
09:45 AM 71.9°F22.2°C 59.9°F15.5°C 66% 5.4 mph NNW8.7 kmh NNW 9.8 mph15.8 kmh 29.99 in1015.6 mb 0.00 in0.0 mm 0.00 in0.0 mm 0.00 in0.0 mm
09:50 AM 71.9°F22.2°C 59.9°F15.5°C 66% 5.7 mph NNW9.2 kmh NNW 9.8 mph15.8 kmh 30.02 in1016.6 mb 0.00 in0.0 mm 0.00 in0.0 mm 0.00 in0.0 mm
09:55 AM 72.2°F22.3°C 59.4°F15.2°C 64% 4.6 mph NW7.4 kmh NW 7.1 mph11.4 kmh 30.02 in1016.6 mb 0.00 in0.0 mm 0.00 in0.0 mm 0.00 in0.0 mm
10:00 AM 72.2°F22.3°C 59.4°F15.2°C 64% 4.5 mph WNW7.2 kmh WNW 7.1 mph11.4 kmh 30.02 in1016.6 mb 0.00 in0.0 mm 0.00 in0.0 mm 0.00 in0.0 mm
10:05 AM 72.6°F22.6°C 59.7°F15.4°C 64% 4.5 mph W7.2 kmh W 8.3 mph13.4 kmh 29.99 in1015.6 mb 0.00 in0.0 mm 0.00 in0.0 mm 0.00 in0.0 mm
10:10 AM 72.8°F22.7°C 59.4°F15.2°C 63% 5.1 mph NW8.2 kmh NW 8.3 mph13.4 kmh 29.99 in1015.6 mb 0.00 in0.0 mm 0.00 in0.0 mm 0.00 in0.0 mm
10:15 AM 72.9°F22.7°C 59.6°F15.3°C 63% 5.2 mph NW8.4 kmh NW 8.0 mph12.9 kmh 29.99 in1015.6 mb 0.00 in0.0 mm 0.00 in0.0 mm 0.00 in0.0 mm
10:20 AM 73.5°F23.1°C 59.7°F15.4°C 62% 6.1 mph NW9.8 kmh NW 13.7 mph22.0 kmh 29.99 in1015.6 mb 0.00 in0.0 mm 0.00 in0.0 mm 0.00 in0.0 mm
10:25 AM 73.5°F23.1°C 59.7°F15.4°C 62% 5.5 mph NW8.9 kmh NW 13.7 mph22.0 kmh 29.99 in1015.6 mb 0.00 in0.0 mm 0.00 in0.0 mm 0.00 in0.0 mm
10:30 AM 73.5°F23.1°C 59.2°F15.1°C 61% 3.7 mph NW6.0 kmh NW 7.4 mph11.9 kmh 29.99 in1015.6 mb 0.00 in0.0 mm 0.00 in0.0 mm 0.00 in0.0 mm
10:35 AM 73.5°F23.1°C 59.2°F15.1°C 61% 5.5 mph W8.9 kmh W 9.8 mph15.8 kmh 29.99 in1015.6 mb 0.00 in0.0 mm 0.00 in0.0 mm 0.00 in0.0 mm
10:40 AM 73.1°F22.8°C 58.9°F14.9°C 61% 7.3 mph W11.7 kmh W 9.8 mph15.8 kmh 29.99 in1015.6 mb 0.00 in0.0 mm 0.00 in0.0 mm 0.00 in0.0 mm
10:45 AM 73.3°F22.9°C 59.5°F15.3°C 62% 6.8 mph W10.9 kmh W 9.8 mph15.8 kmh 29.99 in1015.6 mb 0.00 in0.0 mm 0.00 in0.0 mm 0.00 in0.0 mm
10:50 AM 73.5°F23.1°C 59.2°F15.1°C 61% 5.3 mph WNW8.5 kmh WNW 8.6 mph13.8 kmh 29.99 in1015.6 mb 0.00 in0.0 mm 0.00 in0.0 mm 0.00 in0.0 mm
10:55 AM 73.7°F23.2°C 59.4°F15.2°C 61% 4.6 mph WNW7.4 kmh WNW 7.1 mph11.4 kmh 29.99 in1015.6 mb 0.00 in0.0 mm 0.00 in0.0 mm 0.00 in0.0 mm
11:00 AM 73.5°F23.1°C 59.2°F15.1°C 61% 6.6 mph WSW10.6 kmh WSW 11.3 mph18.2 kmh 29.99 in1015.6 mb 0.00 in0.0 mm 0.00 in0.0 mm 0.00 in0.0 mm
11:05 AM 73.5°F23.1°C 58.8°F14.9°C 60% 7.0 mph WSW11.3 kmh WSW 11.3 mph18.2 kmh 29.99 in1015.6 mb 0.00 in0.0 mm 0.00 in0.0 mm 0.00 in0.0 mm
11:10 AM 73.8°F23.2°C 59.1°F15.1°C 60% 5.3 mph WSW8.5 kmh WSW 8.0 mph12.9 kmh 29.99 in1015.6 mb 0.00 in0.0 mm 0.00 in0.0 mm 0.00 in0.0 mm
11:15 AM 74.4°F23.6°C 59.6°F15.3°C 60% 5.4 mph WSW8.7 kmh WSW 8.0 mph12.9 kmh 29.99 in1015.6 mb 0.00 in0.0 mm 0.00 in0.0 mm 0.00 in0.0 mm
11:20 AM 74.6°F23.7°C 59.3°F15.2°C 59% 5.1 mph W8.2 kmh W 7.7 mph12.4 kmh 29.99 in1015.6 mb 0.00 in0.0 mm 0.00 in0.0 mm 0.00 in0.0 mm
11:25 AM 75.3°F24.1°C 60.0°F15.6°C 59% 5.6 mph WNW9.0 kmh WNW 13.1 mph21.1 kmh 29.99 in1015.6 mb 0.00 in0.0 mm 0.00 in0.0 mm 0.00 in0.0 mm
11:30 AM 75.5°F24.2°C 59.7°F15.4°C 58% 6.9 mph W11.1 kmh W 13.1 mph21.1 kmh 29.99 in1015.6 mb 0.00 in0.0 mm 0.00 in0.0 mm 0.00 in0.0 mm
11:35 AM 75.3°F24.1°C 59.5°F15.3°C 58% 7.9 mph WSW12.7 kmh WSW 10.7 mph17.2 kmh 29.99 in1015.6 mb 0.00 in0.0 mm 0.00 in0.0 mm 0.00 in0.0 mm
11:40 AM 75.5°F24.2°C 59.7°F15.4°C 58% 7.7 mph W12.4 kmh W 10.7 mph17.2 kmh 29.99 in1015.6 mb 0.00 in0.0 mm 0.00 in0.0 mm 0.00 in0.0 mm
11:45 AM 75.5°F24.2°C 59.2°F15.1°C 57% 7.4 mph W11.9 kmh W 10.7 mph17.2 kmh 29.99 in1015.6 mb 0.00 in0.0 mm 0.00 in0.0 mm 0.00 in0.0 mm
11:50 AM 75.8°F24.3°C 59.5°F15.3°C 57% 6.7 mph WNW10.8 kmh WNW 10.4 mph16.7 kmh 29.99 in1015.6 mb 0.00 in0.0 mm 0.00 in0.0 mm 0.00 in0.0 mm
11:55 AM 76.0°F24.4°C 59.2°F15.1°C 56% 5.2 mph W8.4 kmh W 10.4 mph16.7 kmh 29.99 in1015.6 mb 0.00 in0.0 mm 0.00 in0.0 mm 0.00 in0.0 mm
12:00 PM 76.4°F24.7°C 59.5°F15.3°C 56% 4.2 mph WNW6.8 kmh WNW 7.7 mph12.4 kmh 29.99 in1015.6 mb 0.00 in0.0 mm 0.00 in0.0 mm 0.00 in0.0 mm
12:05 PM 76.9°F24.9°C 60.0°F15.6°C 56% 5.7 mph WNW9.2 kmh WNW 7.7 mph12.4 kmh 29.96 in1014.6 mb 0.00 in0.0 mm 0.00 in0.0 mm 0.00 in0.0 mm
12:10 PM 76.9°F24.9°C 59.5°F15.3°C 55% 6.4 mph W10.3 kmh W 9.8 mph15.8 kmh 29.96 in1014.6 mb 0.00 in0.0 mm 0.00 in0.0 mm 0.00 in0.0 mm
12:15 PM 76.4°F24.7°C 59.0°F15.0°C 55% 6.0 mph WSW9.7 kmh WSW 9.8 mph15.8 kmh 29.96 in1014.6 mb 0.00 in0.0 mm 0.00 in0.0 mm 0.00 in0.0 mm
12:20 PM 76.6°F24.8°C 58.7°F14.8°C 54% 5.3 mph WSW8.5 kmh WSW 10.7 mph17.2 kmh 29.96 in1014.6 mb 0.00 in0.0 mm 0.00 in0.0 mm 0.00 in0.0 mm
12:25 PM 76.9°F24.9°C 59.0°F15.0°C 54% 5.0 mph W8.0 kmh W 10.7 mph17.2 kmh 29.96 in1014.6 mb 0.00 in0.0 mm 0.00 in0.0 mm 0.00 in0.0 mm
12:30 PM 76.9°F24.9°C 59.0°F15.0°C 54% 4.7 mph WNW7.6 kmh WNW 8.0 mph12.9 kmh 29.96 in1014.6 mb 0.00 in0.0 mm 0.00 in0.0 mm 0.00 in0.0 mm
12:35 PM 77.3°F25.2°C 58.8°F14.9°C 53% 4.8 mph W7.7 kmh W 8.0 mph12.9 kmh 29.96 in1014.6 mb 0.00 in0.0 mm 0.00 in0.0 mm 0.00 in0.0 mm
12:40 PM 77.4°F25.2°C 59.0°F15.0°C 53% 5.1 mph W8.2 kmh W 7.7 mph12.4 kmh 29.96 in1014.6 mb 0.00 in0.0 mm 0.00 in0.0 mm 0.00 in0.0 mm
12:45 PM 77.8°F25.4°C 58.8°F14.9°C 52% 3.9 mph W6.3 kmh W 7.7 mph12.4 kmh 29.96 in1014.6 mb 0.00 in0.0 mm 0.00 in0.0 mm 0.00 in0.0 mm
12:50 PM 78.0°F25.6°C 58.4°F14.7°C 51% 5.0 mph W8.0 kmh W 8.3 mph13.4 kmh 29.96 in1014.6 mb 0.00 in0.0 mm 0.00 in0.0 mm 0.00 in0.0 mm
12:55 PM 77.8°F25.4°C 58.8°F14.9°C 52% 7.4 mph WSW11.9 kmh WSW 13.1 mph21.1 kmh 29.96 in1014.6 mb 0.00 in0.0 mm 0.00 in0.0 mm 0.00 in0.0 mm
01:00 PM 77.6°F25.3°C 58.1°F14.5°C 51% 8.5 mph WSW13.7 kmh WSW 13.1 mph21.1 kmh 29.96 in1014.6 mb 0.00 in0.0 mm 0.00 in0.0 mm 0.00 in0.0 mm
01:05 PM 77.1°F25.1°C 58.1°F14.5°C 52% 9.8 mph W15.8 kmh W 13.1 mph21.1 kmh 29.96 in1014.6 mb 0.00 in0.0 mm 0.00 in0.0 mm 0.00 in0.0 mm
01:10 PM 76.7°F24.8°C 57.8°F14.3°C 52% 8.0 mph WSW12.9 kmh WSW 11.6 mph18.7 kmh 29.96 in1014.6 mb 0.00 in0.0 mm 0.00 in0.0 mm 0.00 in0.0 mm
01:15 PM 76.6°F24.8°C 57.6°F14.2°C 52% 6.8 mph WSW10.9 kmh WSW 10.7 mph17.2 kmh 29.96 in1014.6 mb 0.00 in0.0 mm 0.00 in0.0 mm 0.00 in0.0 mm
01:20 PM 76.6°F24.8°C 57.6°F14.2°C 52% 7.0 mph WSW11.3 kmh WSW 8.6 mph13.8 kmh 29.96 in1014.6 mb 0.00 in0.0 mm 0.00 in0.0 mm 0.00 in0.0 mm
01:25 PM 76.6°F24.8°C 57.6°F14.2°C 52% 7.9 mph W12.7 kmh W 10.7 mph17.2 kmh 29.96 in1014.6 mb 0.00 in0.0 mm 0.00 in0.0 mm 0.00 in0.0 mm
01:30 PM 76.7°F24.8°C 57.8°F14.3°C 52% 8.6 mph W13.8 kmh W 10.7 mph17.2 kmh 29.96 in1014.6 mb 0.00 in0.0 mm 0.00 in0.0 mm 0.00 in0.0 mm
01:35 PM 76.9°F24.9°C 57.4°F14.1°C 51% 7.9 mph W12.7 kmh W 10.7 mph17.2 kmh 29.96 in1014.6 mb 0.00 in0.0 mm 0.00 in0.0 mm 0.00 in0.0 mm
01:40 PM 77.1°F25.1°C 58.1°F14.5°C 52% 7.0 mph W11.3 kmh W 10.7 mph17.2 kmh 29.96 in1014.6 mb 0.00 in0.0 mm 0.00 in0.0 mm 0.00 in0.0 mm
01:45 PM 77.6°F25.3°C 57.5°F14.2°C 50% 5.9 mph W9.5 kmh W 10.1 mph16.3 kmh 29.96 in1014.6 mb 0.00 in0.0 mm 0.00 in0.0 mm 0.00 in0.0 mm
01:50 PM 77.6°F25.3°C 57.5°F14.2°C 50% 6.1 mph WSW9.8 kmh WSW 9.5 mph15.3 kmh 29.96 in1014.6 mb 0.00 in0.0 mm 0.00 in0.0 mm 0.00 in0.0 mm
01:55 PM 77.6°F25.3°C 57.5°F14.2°C 50% 7.3 mph W11.7 kmh W 9.8 mph15.8 kmh 29.96 in1014.6 mb 0.00 in0.0 mm 0.00 in0.0 mm 0.00 in0.0 mm
02:00 PM 77.3°F25.2°C 57.7°F14.3°C 51% 7.2 mph W11.6 kmh W 9.8 mph15.8 kmh 29.96 in1014.6 mb 0.00 in0.0 mm 0.00 in0.0 mm 0.00 in0.0 mm
02:05 PM 76.9°F24.9°C 57.4°F14.1°C 51% 6.6 mph W10.6 kmh W 9.8 mph15.8 kmh 29.96 in1014.6 mb 0.00 in0.0 mm 0.00 in0.0 mm 0.00 in0.0 mm
02:10 PM 76.6°F24.8°C 57.6°F14.2°C 52% 7.7 mph WSW12.4 kmh WSW 12.2 mph19.6 kmh 29.96 in1014.6 mb 0.00 in0.0 mm 0.00 in0.0 mm 0.00 in0.0 mm
02:15 PM 76.7°F24.8°C 57.8°F14.3°C 52% 7.4 mph W11.9 kmh W 12.2 mph19.6 kmh 29.96 in1014.6 mb 0.00 in0.0 mm 0.00 in0.0 mm 0.00 in0.0 mm
02:20 PM 76.6°F24.8°C 57.6°F14.2°C 52% 7.4 mph WSW11.9 kmh WSW 10.1 mph16.3 kmh 29.96 in1014.6 mb 0.00 in0.0 mm 0.00 in0.0 mm 0.00 in0.0 mm
02:25 PM 76.2°F24.6°C 57.3°F14.1°C 52% 7.3 mph WSW11.7 kmh WSW 10.1 mph16.3 kmh 29.96 in1014.6 mb 0.00 in0.0 mm 0.00 in0.0 mm 0.00 in0.0 mm
02:30 PM 76.6°F24.8°C 57.6°F14.2°C 52% 7.6 mph WSW12.2 kmh WSW 11.3 mph18.2 kmh 29.96 in1014.6 mb 0.00 in0.0 mm 0.00 in0.0 mm 0.00 in0.0 mm
02:35 PM 76.6°F24.8°C 57.6°F14.2°C 52% 6.1 mph WSW9.8 kmh WSW 11.3 mph18.2 kmh 29.96 in1014.6 mb 0.00 in0.0 mm 0.00 in0.0 mm 0.00 in0.0 mm
02:40 PM 76.7°F24.8°C 57.8°F14.3°C 52% 5.1 mph W8.2 kmh W 8.3 mph13.4 kmh 29.96 in1014.6 mb 0.00 in0.0 mm 0.00 in0.0 mm 0.00 in0.0 mm
02:45 PM 76.6°F24.8°C 57.6°F14.2°C 52% 7.7 mph WSW12.4 kmh WSW 10.4 mph16.7 kmh 29.96 in1014.6 mb 0.00 in0.0 mm 0.00 in0.0 mm 0.00 in0.0 mm
02:50 PM 76.6°F24.8°C 57.6°F14.2°C 52% 7.3 mph WSW11.7 kmh WSW 10.4 mph16.7 kmh 29.96 in1014.6 mb 0.00 in0.0 mm 0.00 in0.0 mm 0.00 in0.0 mm
02:55 PM 77.1°F25.1°C 58.1°F14.5°C 52% 7.9 mph W12.7 kmh W 11.3 mph18.2 kmh 29.96 in1014.6 mb 0.00 in0.0 mm 0.00 in0.0 mm 0.00 in0.0 mm
03:00 PM 77.1°F25.1°C 58.1°F14.5°C 52% 8.9 mph W14.3 kmh W 11.6 mph18.7 kmh 29.96 in1014.6 mb 0.00 in0.0 mm 0.00 in0.0 mm 0.00 in0.0 mm
03:05 PM 77.3°F25.2°C 58.3°F14.6°C 52% 7.4 mph WNW11.9 kmh WNW 11.6 mph18.7 kmh 29.96 in1014.6 mb 0.00 in0.0 mm 0.00 in0.0 mm 0.00 in0.0 mm
03:10 PM 77.4°F25.2°C 58.4°F14.7°C 52% 7.5 mph WNW12.1 kmh WNW 11.6 mph18.7 kmh 29.93 in1013.5 mb 0.00 in0.0 mm 0.00 in0.0 mm 0.00 in0.0 mm
03:15 PM 77.1°F25.1°C 58.1°F14.5°C 52% 7.7 mph WNW12.4 kmh WNW 11.6 mph18.7 kmh 29.93 in1013.5 mb 0.00 in0.0 mm 0.00 in0.0 mm 0.00 in0.0 mm
03:20 PM 76.6°F24.8°C 57.6°F14.2°C 52% 7.4 mph WNW11.9 kmh WNW 11.6 mph18.7 kmh 29.93 in1013.5 mb 0.00 in0.0 mm 0.00 in0.0 mm 0.00 in0.0 mm
03:25 PM 76.2°F24.6°C 57.3°F14.1°C 52% 8.2 mph W13.2 kmh W 14.3 mph23.0 kmh 29.93 in1013.5 mb 0.00 in0.0 mm 0.00 in0.0 mm 0.00 in0.0 mm
03:30 PM 76.0°F24.4°C 57.6°F14.2°C 53% 7.9 mph W12.7 kmh W 14.3 mph23.0 kmh 29.93 in1013.5 mb 0.00 in0.0 mm 0.00 in0.0 mm 0.00 in0.0 mm
03:35 PM 76.0°F24.4°C 57.6°F14.2°C 53% 7.6 mph W12.2 kmh W 11.3 mph18.2 kmh 29.93 in1013.5 mb 0.00 in0.0 mm 0.00 in0.0 mm 0.00 in0.0 mm
03:40 PM 76.0°F24.4°C 57.6°F14.2°C 53% 8.0 mph W12.9 kmh W 13.7 mph22.0 kmh 29.93 in1013.5 mb 0.00 in0.0 mm 0.00 in0.0 mm 0.00 in0.0 mm
03:45 PM 76.0°F24.4°C 57.6°F14.2°C 53% 7.8 mph W12.6 kmh W 13.7 mph22.0 kmh 29.93 in1013.5 mb 0.00 in0.0 mm 0.00 in0.0 mm 0.00 in0.0 mm
03:50 PM 75.8°F24.3°C 57.5°F14.2°C 53% 8.7 mph W14.0 kmh W 12.2 mph19.6 kmh 29.93 in1013.5 mb 0.00 in0.0 mm 0.00 in0.0 mm 0.00 in0.0 mm
03:55 PM 75.7°F24.3°C 57.3°F14.1°C 53% 9.1 mph W14.6 kmh W 12.2 mph19.6 kmh 29.93 in1013.5 mb 0.00 in0.0 mm 0.00 in0.0 mm 0.00 in0.0 mm
04:00 PM 75.5°F24.2°C 57.1°F13.9°C 53% 8.9 mph WNW14.3 kmh WNW 10.7 mph17.2 kmh 29.93 in1013.5 mb 0.00 in0.0 mm 0.00 in0.0 mm 0.00 in0.0 mm
04:05 PM 75.5°F24.2°C 57.7°F14.3°C 54% 8.6 mph WNW13.8 kmh WNW 10.7 mph17.2 kmh 29.93 in1013.5 mb 0.00 in0.0 mm 0.00 in0.0 mm 0.00 in0.0 mm
04:10 PM 75.5°F24.2°C 57.1°F13.9°C 53% 8.0 mph W12.9 kmh W 12.8 mph20.6 kmh 29.93 in1013.5 mb 0.00 in0.0 mm 0.00 in0.0 mm 0.00 in0.0 mm
04:15 PM 75.1°F23.9°C 57.3°F14.1°C 54% 8.6 mph W13.8 kmh W 12.8 mph20.6 kmh 29.93 in1013.5 mb 0.00 in0.0 mm 0.00 in0.0 mm 0.00 in0.0 mm
04:20 PM 75.3°F24.1°C 57.5°F14.2°C 54% 9.0 mph W14.5 kmh W 11.9 mph19.2 kmh 29.93 in1013.5 mb 0.00 in0.0 mm 0.00 in0.0 mm 0.00 in0.0 mm
04:25 PM 75.1°F23.9°C 57.3°F14.1°C 54% 8.9 mph W14.3 kmh W 16.4 mph26.4 kmh 29.93 in1013.5 mb 0.00 in0.0 mm 0.00 in0.0 mm 0.00 in0.0 mm
04:30 PM 74.9°F23.8°C 57.2°F14.0°C 54% 8.7 mph W14.0 kmh W 16.4 mph26.4 kmh 29.93 in1013.5 mb 0.00 in0.0 mm 0.00 in0.0 mm 0.00 in0.0 mm
04:35 PM 74.8°F23.8°C 57.0°F13.9°C 54% 7.8 mph WNW12.6 kmh WNW 10.7 mph17.2 kmh 29.93 in1013.5 mb 0.00 in0.0 mm 0.00 in0.0 mm 0.00 in0.0 mm
04:40 PM 74.2°F23.4°C 56.5°F13.6°C 54% 9.5 mph W15.3 kmh W 17.6 mph28.3 kmh 29.93 in1013.5 mb 0.00 in0.0 mm 0.00 in0.0 mm 0.00 in0.0 mm
04:45 PM 73.8°F23.2°C 56.7°F13.7°C 55% 11.4 mph W18.3 kmh W 17.6 mph28.3 kmh 29.93 in1013.5 mb 0.00 in0.0 mm 0.00 in0.0 mm 0.00 in0.0 mm
04:50 PM 73.7°F23.2°C 57.0°F13.9°C 56% 11.3 mph WSW18.2 kmh WSW 17.3 mph27.8 kmh 29.93 in1013.5 mb 0.00 in0.0 mm 0.00 in0.0 mm 0.00 in0.0 mm
04:55 PM 73.1°F22.8°C 56.5°F13.6°C 56% 9.8 mph WSW15.8 kmh WSW 17.3 mph27.8 kmh 29.93 in1013.5 mb 0.00 in0.0 mm 0.00 in0.0 mm 0.00 in0.0 mm
05:00 PM 72.8°F22.7°C 56.7°F13.7°C 57% 8.4 mph W13.5 kmh W 13.7 mph22.0 kmh 29.93 in1013.5 mb 0.00 in0.0 mm 0.00 in0.0 mm 0.00 in0.0 mm
05:05 PM 72.6°F22.6°C 56.5°F13.6°C 57% 10.3 mph W16.6 kmh W 14.6 mph23.5 kmh 29.93 in1013.5 mb 0.00 in0.0 mm 0.00 in0.0 mm 0.00 in0.0 mm
05:10 PM 72.2°F22.3°C 56.6°F13.7°C 58% 9.0 mph WSW14.5 kmh WSW 14.6 mph23.5 kmh 29.93 in1013.5 mb 0.00 in0.0 mm 0.00 in0.0 mm 0.00 in0.0 mm
05:15 PM 72.2°F22.3°C 56.6°F13.7°C 58% 7.8 mph W12.6 kmh W 11.6 mph18.7 kmh 29.93 in1013.5 mb 0.00 in0.0 mm 0.00 in0.0 mm 0.00 in0.0 mm
05:20 PM 71.9°F22.2°C 56.3°F13.5°C 58% 8.6 mph W13.8 kmh W 11.6 mph18.7 kmh 29.90 in1012.5 mb 0.00 in0.0 mm 0.00 in0.0 mm 0.00 in0.0 mm
05:25 PM 71.7°F22.1°C 56.1°F13.4°C 58% 8.5 mph WSW13.7 kmh WSW 10.7 mph17.2 kmh 29.90 in1012.5 mb 0.00 in0.0 mm 0.00 in0.0 mm 0.00 in0.0 mm
05:30 PM 71.5°F21.9°C 56.4°F13.6°C 59% 9.2 mph WSW14.8 kmh WSW 12.5 mph20.1 kmh 29.90 in1012.5 mb 0.00 in0.0 mm 0.00 in0.0 mm 0.00 in0.0 mm
05:35 PM 71.5°F21.9°C 56.4°F13.6°C 59% 9.4 mph W15.1 kmh W 12.5 mph20.1 kmh 29.90 in1012.5 mb 0.00 in0.0 mm 0.00 in0.0 mm 0.00 in0.0 mm
05:40 PM 70.8°F21.6°C 56.2°F13.4°C 60% 9.0 mph W14.5 kmh W 11.6 mph18.7 kmh 29.90 in1012.5 mb 0.00 in0.0 mm 0.00 in0.0 mm 0.00 in0.0 mm
05:45 PM 70.8°F21.6°C 56.2°F13.4°C 60% 8.6 mph WSW13.8 kmh WSW 13.1 mph21.1 kmh 29.90 in1012.5 mb 0.00 in0.0 mm 0.00 in0.0 mm 0.00 in0.0 mm
05:50 PM 70.3°F21.3°C 56.2°F13.4°C 61% 9.4 mph WSW15.1 kmh WSW 13.1 mph21.1 kmh 29.90 in1012.5 mb 0.00 in0.0 mm 0.00 in0.0 mm 0.00 in0.0 mm
05:55 PM 70.1°F21.2°C 56.0°F13.3°C 61% 8.3 mph W13.4 kmh W 13.1 mph21.1 kmh 29.90 in1012.5 mb 0.00 in0.0 mm 0.00 in0.0 mm 0.00 in0.0 mm
06:00 PM 69.7°F20.9°C 56.1°F13.4°C 62% 7.7 mph W12.4 kmh W 13.1 mph21.1 kmh 29.90 in1012.5 mb 0.00 in0.0 mm 0.00 in0.0 mm 0.00 in0.0 mm
06:05 PM 69.5°F20.8°C 55.9°F13.3°C 62% 8.7 mph W14.0 kmh W 15.2 mph24.5 kmh 29.90 in1012.5 mb 0.00 in0.0 mm 0.00 in0.0 mm 0.00 in0.0 mm
06:10 PM 68.8°F20.4°C 55.3°F12.9°C 62% 9.0 mph W14.5 kmh W 15.2 mph24.5 kmh 29.90 in1012.5 mb 0.00 in0.0 mm 0.00 in0.0 mm 0.00 in0.0 mm
06:15 PM 68.8°F20.4°C 55.3°F12.9°C 62% 7.5 mph W12.1 kmh W 11.3 mph18.2 kmh 29.90 in1012.5 mb 0.00 in0.0 mm 0.00 in0.0 mm 0.00 in0.0 mm
06:20 PM 68.6°F20.3°C 55.5°F13.1°C 63% 7.7 mph W12.4 kmh W 11.6 mph18.7 kmh 29.90 in1012.5 mb 0.00 in0.0 mm 0.00 in0.0 mm 0.00 in0.0 mm
06:25 PM 68.6°F20.3°C 55.5°F13.1°C 63% 8.0 mph W12.9 kmh W 11.6 mph18.7 kmh 29.90 in1012.5 mb 0.00 in0.0 mm 0.00 in0.0 mm 0.00 in0.0 mm
06:30 PM 68.6°F20.3°C 56.0°F13.3°C 64% 7.8 mph W12.6 kmh W 10.4 mph16.7 kmh 29.90 in1012.5 mb 0.00 in0.0 mm 0.00 in0.0 mm 0.00 in0.0 mm
06:35 PM 68.6°F20.3°C 56.0°F13.3°C 64% 7.5 mph W12.1 kmh W 9.8 mph15.8 kmh 29.90 in1012.5 mb 0.00 in0.0 mm 0.00 in0.0 mm 0.00 in0.0 mm
06:40 PM 68.4°F20.2°C 55.8°F13.2°C 64% 7.6 mph W12.2 kmh W 11.6 mph18.7 kmh 29.90 in1012.5 mb 0.00 in0.0 mm 0.00 in0.0 mm 0.00 in0.0 mm
06:45 PM 68.4°F20.2°C 56.2°F13.4°C 65% 6.9 mph W11.1 kmh W 11.6 mph18.7 kmh 29.90 in1012.5 mb 0.00 in0.0 mm 0.00 in0.0 mm 0.00 in0.0 mm
06:50 PM 68.1°F20.1°C 55.9°F13.3°C 65% 6.7 mph W10.8 kmh W 10.7 mph17.2 kmh 29.90 in1012.5 mb 0.00 in0.0 mm 0.00 in0.0 mm 0.00 in0.0 mm
06:55 PM 67.9°F19.9°C 55.7°F13.2°C 65% 8.0 mph W12.9 kmh W 10.7 mph17.2 kmh 29.90 in1012.5 mb 0.00 in0.0 mm 0.00 in0.0 mm 0.00 in0.0 mm
07:00 PM 67.4°F19.7°C 55.2°F12.9°C 65% 8.4 mph W13.5 kmh W 10.4 mph16.7 kmh 29.90 in1012.5 mb 0.00 in0.0 mm 0.00 in0.0 mm 0.00 in0.0 mm
07:05 PM 67.2°F19.6°C 55.0°F12.8°C 65% 8.2 mph W13.2 kmh W 10.4 mph16.7 kmh 29.90 in1012.5 mb 0.00 in0.0 mm 0.00 in0.0 mm 0.00 in0.0 mm
07:10 PM 67.0°F19.4°C 54.9°F12.7°C 65% 8.6 mph W13.8 kmh W 13.7 mph22.0 kmh 29.90 in1012.5 mb 0.00 in0.0 mm 0.00 in0.0 mm 0.00 in0.0 mm
07:15 PM 66.5°F19.2°C 54.8°F12.7°C 66% 8.5 mph W13.7 kmh W 13.7 mph22.0 kmh 29.90 in1012.5 mb 0.00 in0.0 mm 0.00 in0.0 mm 0.00 in0.0 mm
07:20 PM 66.3°F19.1°C 55.0°F12.8°C 67% 7.0 mph W11.3 kmh W 10.7 mph17.2 kmh 29.90 in1012.5 mb 0.00 in0.0 mm 0.00 in0.0 mm 0.00 in0.0 mm
07:25 PM 66.1°F18.9°C 54.8°F12.7°C 67% 6.9 mph W11.1 kmh W 10.4 mph16.7 kmh 29.90 in1012.5 mb 0.00 in0.0 mm 0.00 in0.0 mm 0.00 in0.0 mm
07:30 PM 65.8°F18.8°C 54.1°F12.3°C 66% 7.6 mph WNW12.2 kmh WNW 10.7 mph17.2 kmh 29.90 in1012.5 mb 0.00 in0.0 mm 0.00 in0.0 mm 0.00 in0.0 mm
07:35 PM 65.4°F18.6°C 54.1°F12.3°C 67% 7.9 mph W12.7 kmh W 11.6 mph18.7 kmh 29.90 in1012.5 mb 0.00 in0.0 mm 0.00 in0.0 mm 0.00 in0.0 mm
07:40 PM 65.2°F18.4°C 54.0°F12.2°C 67% 7.5 mph WSW12.1 kmh WSW 11.6 mph18.7 kmh 29.90 in1012.5 mb 0.00 in0.0 mm 0.00 in0.0 mm 0.00 in0.0 mm
07:45 PM 65.0°F18.3°C 53.8°F12.1°C 67% 6.0 mph WSW9.7 kmh WSW 11.6 mph18.7 kmh 29.90 in1012.5 mb 0.00 in0.0 mm 0.00 in0.0 mm 0.00 in0.0 mm
07:50 PM 64.8°F18.2°C 54.0°F12.2°C 68% 6.1 mph W9.8 kmh W 10.7 mph17.2 kmh 29.90 in1012.5 mb 0.00 in0.0 mm 0.00 in0.0 mm 0.00 in0.0 mm
07:55 PM 64.7°F18.2°C 53.9°F12.2°C 68% 8.7 mph WNW14.0 kmh WNW 13.1 mph21.1 kmh 29.90 in1012.5 mb 0.00 in0.0 mm 0.00 in0.0 mm 0.00 in0.0 mm
08:00 PM 64.5°F18.1°C 54.1°F12.3°C 69% 8.3 mph WNW13.4 kmh WNW 13.1 mph21.1 kmh 29.90 in1012.5 mb 0.00 in0.0 mm 0.00 in0.0 mm 0.00 in0.0 mm
08:05 PM 64.3°F17.9°C 53.9°F12.2°C 69% 5.8 mph W9.3 kmh W 10.1 mph16.3 kmh 29.90 in1012.5 mb 0.00 in0.0 mm 0.00 in0.0 mm 0.00 in0.0 mm
08:10 PM 64.3°F17.9°C 53.9°F12.2°C 69% 5.8 mph WNW9.3 kmh WNW 10.1 mph16.3 kmh 29.90 in1012.5 mb 0.00 in0.0 mm 0.00 in0.0 mm 0.00 in0.0 mm
08:15 PM 64.1°F17.8°C 54.1°F12.3°C 70% 5.8 mph WNW9.3 kmh WNW 10.1 mph16.3 kmh 29.90 in1012.5 mb 0.00 in0.0 mm 0.00 in0.0 mm 0.00 in0.0 mm
08:20 PM 64.0°F17.8°C 54.0°F12.2°C 70% 5.4 mph WNW8.7 kmh WNW 7.7 mph12.4 kmh 29.90 in1012.5 mb 0.00 in0.0 mm 0.00 in0.0 mm 0.00 in0.0 mm
08:25 PM 64.0°F17.8°C 54.0°F12.2°C 70% 5.7 mph WNW9.2 kmh WNW 8.3 mph13.4 kmh 29.90 in1012.5 mb 0.00 in0.0 mm 0.00 in0.0 mm 0.00 in0.0 mm
08:30 PM 63.8°F17.7°C 54.2°F12.3°C 71% 5.6 mph W9.0 kmh W 10.1 mph16.3 kmh 29.90 in1012.5 mb 0.00 in0.0 mm 0.00 in0.0 mm 0.00 in0.0 mm
08:35 PM 63.8°F17.7°C 54.2°F12.3°C 71% 5.2 mph W8.4 kmh W 10.1 mph16.3 kmh 29.90 in1012.5 mb 0.00 in0.0 mm 0.00 in0.0 mm 0.00 in0.0 mm
08:40 PM 63.6°F17.6°C 54.4°F12.4°C 72% 5.8 mph WNW9.3 kmh WNW 10.1 mph16.3 kmh 29.90 in1012.5 mb 0.00 in0.0 mm 0.00 in0.0 mm 0.00 in0.0 mm
08:45 PM 63.6°F17.6°C 54.4°F12.4°C 72% 6.2 mph W10.0 kmh W 8.6 mph13.8 kmh 29.90 in1012.5 mb 0.00 in0.0 mm 0.00 in0.0 mm 0.00 in0.0 mm
08:50 PM 63.4°F17.4°C 54.2°F12.3°C 72% 8.1 mph W13.0 kmh W 13.1 mph21.1 kmh 29.90 in1012.5 mb 0.00 in0.0 mm 0.00 in0.0 mm 0.00 in0.0 mm
08:55 PM 63.4°F17.4°C 54.2°F12.3°C 72% 9.4 mph W15.1 kmh W 13.1 mph21.1 kmh 29.90 in1012.5 mb 0.00 in0.0 mm 0.00 in0.0 mm 0.00 in0.0 mm
09:00 PM 63.2°F17.3°C 54.0°F12.2°C 72% 7.4 mph WNW11.9 kmh WNW 10.1 mph16.3 kmh 29.90 in1012.5 mb 0.00 in0.0 mm 0.00 in0.0 mm 0.00 in0.0 mm
09:05 PM 63.2°F17.3°C 54.0°F12.2°C 72% 6.9 mph WNW11.1 kmh WNW 10.1 mph16.3 kmh 29.90 in1012.5 mb 0.00 in0.0 mm 0.00 in0.0 mm 0.00 in0.0 mm
09:10 PM 63.2°F17.3°C 54.4°F12.4°C 73% 6.6 mph WNW10.6 kmh WNW 9.8 mph15.8 kmh 29.90 in1012.5 mb 0.00 in0.0 mm 0.00 in0.0 mm 0.00 in0.0 mm
09:15 PM 63.0°F17.2°C 54.3°F12.4°C 73% 6.5 mph W10.5 kmh W 10.7 mph17.2 kmh 29.90 in1012.5 mb 0.00 in0.0 mm 0.00 in0.0 mm 0.00 in0.0 mm
09:20 PM 62.9°F17.2°C 54.1°F12.3°C 73% 7.7 mph W12.4 kmh W 11.3 mph18.2 kmh 29.90 in1012.5 mb 0.00 in0.0 mm 0.00 in0.0 mm 0.00 in0.0 mm
09:25 PM 62.9°F17.2°C 54.1°F12.3°C 73% 7.8 mph W12.6 kmh W 11.3 mph18.2 kmh 29.90 in1012.5 mb 0.00 in0.0 mm 0.00 in0.0 mm 0.00 in0.0 mm
09:30 PM 62.7°F17.1°C 54.3°F12.4°C 74% 6.8 mph W10.9 kmh W 9.2 mph14.8 kmh 29.90 in1012.5 mb 0.00 in0.0 mm 0.00 in0.0 mm 0.00 in0.0 mm
09:35 PM 62.7°F17.1°C 54.3°F12.4°C 74% 6.9 mph W11.1 kmh W 14.3 mph23.0 kmh 29.90 in1012.5 mb 0.00 in0.0 mm 0.00 in0.0 mm 0.00 in0.0 mm
09:40 PM 62.7°F17.1°C 54.3°F12.4°C 74% 7.4 mph W11.9 kmh W 14.3 mph23.0 kmh 29.90 in1012.5 mb 0.00 in0.0 mm 0.00 in0.0 mm 0.00 in0.0 mm
09:45 PM 62.5°F16.9°C 54.5°F12.5°C 75% 8.2 mph W13.2 kmh W 14.3 mph23.0 kmh 29.90 in1012.5 mb 0.00 in0.0 mm 0.00 in0.0 mm 0.00 in0.0 mm
09:50 PM 62.5°F16.9°C 54.5°F12.5°C 75% 7.6 mph W12.2 kmh W 10.7 mph17.2 kmh 29.90 in1012.5 mb 0.00 in0.0 mm 0.00 in0.0 mm 0.00 in0.0 mm
09:55 PM 62.3°F16.8°C 54.3°F12.4°C 75% 7.8 mph W12.6 kmh W 11.9 mph19.2 kmh 29.90 in1012.5 mb 0.00 in0.0 mm 0.00 in0.0 mm 0.00 in0.0 mm
10:00 PM 62.3°F16.8°C 54.3°F12.4°C 75% 7.9 mph W12.7 kmh W 11.9 mph19.2 kmh 29.90 in1012.5 mb 0.00 in0.0 mm 0.00 in0.0 mm 0.00 in0.0 mm
10:05 PM 62.3°F16.8°C 54.7°F12.6°C 76% 9.4 mph WSW15.1 kmh WSW 13.4 mph21.6 kmh 29.90 in1012.5 mb 0.00 in0.0 mm 0.00 in0.0 mm 0.00 in0.0 mm
10:10 PM 62.3°F16.8°C 54.7°F12.6°C 76% 8.6 mph WSW13.8 kmh WSW 13.4 mph21.6 kmh 29.90 in1012.5 mb 0.00 in0.0 mm 0.00 in0.0 mm 0.00 in0.0 mm
10:15 PM 62.3°F16.8°C 54.7°F12.6°C 76% 7.4 mph W11.9 kmh W 12.5 mph20.1 kmh 29.90 in1012.5 mb 0.00 in0.0 mm 0.00 in0.0 mm 0.00 in0.0 mm
10:20 PM 62.3°F16.8°C 54.7°F12.6°C 76% 7.0 mph W11.3 kmh W 12.5 mph20.1 kmh 29.90 in1012.5 mb 0.00 in0.0 mm 0.00 in0.0 mm 0.00 in0.0 mm
10:25 PM 62.3°F16.8°C 55.0°F12.8°C 77% 5.3 mph W8.5 kmh W 8.6 mph13.8 kmh 29.90 in1012.5 mb 0.00 in0.0 mm 0.00 in0.0 mm 0.00 in0.0 mm
10:30 PM 62.3°F16.8°C 55.0°F12.8°C 77% 6.0 mph WSW9.7 kmh WSW 10.1 mph16.3 kmh 29.90 in1012.5 mb 0.00 in0.0 mm 0.00 in0.0 mm 0.00 in0.0 mm
10:35 PM 62.3°F16.8°C 55.0°F12.8°C 77% 7.7 mph W12.4 kmh W 10.1 mph16.3 kmh 29.87 in1011.5 mb 0.00 in0.0 mm 0.00 in0.0 mm 0.00 in0.0 mm
10:40 PM 62.2°F16.8°C 54.9°F12.7°C 77% 6.6 mph WNW10.6 kmh WNW 10.1 mph16.3 kmh 29.87 in1011.5 mb 0.00 in0.0 mm 0.00 in0.0 mm 0.00 in0.0 mm
10:45 PM 62.2°F16.8°C 54.9°F12.7°C 77% 5.6 mph WNW9.0 kmh WNW 8.6 mph13.8 kmh 29.87 in1011.5 mb 0.00 in0.0 mm 0.00 in0.0 mm 0.00 in0.0 mm
10:50 PM 62.2°F16.8°C 54.9°F12.7°C 77% 4.5 mph WNW7.2 kmh WNW 8.3 mph13.4 kmh 29.87 in1011.5 mb 0.00 in0.0 mm 0.00 in0.0 mm 0.00 in0.0 mm
10:55 PM 62.2°F16.8°C 55.2°F12.9°C 78% 6.9 mph NW11.1 kmh NW 10.4 mph16.7 kmh 29.87 in1011.5 mb 0.00 in0.0 mm 0.00 in0.0 mm 0.00 in0.0 mm
11:00 PM 62.2°F16.8°C 55.2°F12.9°C 78% 8.1 mph WNW13.0 kmh WNW 10.4 mph16.7 kmh 29.87 in1011.5 mb 0.00 in0.0 mm 0.00 in0.0 mm 0.00 in0.0 mm
11:05 PM 62.0°F16.7°C 55.0°F12.8°C 78% 6.3 mph W10.1 kmh W 9.8 mph15.8 kmh 29.87 in1011.5 mb 0.00 in0.0 mm 0.00 in0.0 mm 0.00 in0.0 mm
11:10 PM 62.0°F16.7°C 55.0°F12.8°C 78% 5.7 mph W9.2 kmh W 8.0 mph12.9 kmh 29.87 in1011.5 mb 0.00 in0.0 mm 0.00 in0.0 mm 0.00 in0.0 mm
11:15 PM 62.0°F16.7°C 55.0°F12.8°C 78% 5.5 mph W8.9 kmh W 10.1 mph16.3 kmh 29.87 in1011.5 mb 0.00 in0.0 mm 0.00 in0.0 mm 0.00 in0.0 mm
11:20 PM 62.0°F16.7°C 55.0°F12.8°C 78% 5.8 mph W9.3 kmh W 10.1 mph16.3 kmh 29.87 in1011.5 mb 0.00 in0.0 mm 0.00 in0.0 mm 0.00 in0.0 mm
11:25 PM 61.8°F16.6°C 55.2°F12.9°C 79% 5.6 mph W9.0 kmh W 10.1 mph16.3 kmh 29.87 in1011.5 mb 0.00 in0.0 mm 0.00 in0.0 mm 0.00 in0.0 mm
11:30 PM 61.8°F16.6°C 55.2°F12.9°C 79% 5.1 mph W8.2 kmh W 7.4 mph11.9 kmh 29.87 in1011.5 mb 0.00 in0.0 mm 0.00 in0.0 mm 0.00 in0.0 mm
11:35 PM 61.8°F16.6°C 55.2°F12.9°C 79% 4.2 mph WNW6.8 kmh WNW 7.4 mph11.9 kmh 29.87 in1011.5 mb 0.00 in0.0 mm 0.00 in0.0 mm 0.00 in0.0 mm
11:40 PM 61.6°F16.4°C 55.0°F12.8°C 79% 3.6 mph WNW5.8 kmh WNW 5.1 mph8.2 kmh 29.87 in1011.5 mb 0.00 in0.0 mm 0.00 in0.0 mm 0.00 in0.0 mm
11:45 PM 61.4°F16.3°C 54.9°F12.7°C 79% 4.4 mph W7.1 kmh W 7.4 mph11.9 kmh 29.87 in1011.5 mb 0.00 in0.0 mm 0.00 in0.0 mm 0.00 in0.0 mm
11:50 PM 61.4°F16.3°C 54.9°F12.7°C 79% 5.5 mph W8.9 kmh W 7.7 mph12.4 kmh 29.87 in1011.5 mb 0.00 in0.0 mm 0.00 in0.0 mm 0.00 in0.0 mm
11:55 PM 61.4°F16.3°C 55.2°F12.9°C 80% 6.1 mph WSW9.8 kmh WSW 8.3 mph13.4 kmh 29.87 in1011.5 mb 0.00 in0.0 mm 0.00 in0.0 mm 0.00 in0.0 mm